Scott, LA

8:54 AM CDT on April 26, 2015 (GMT -0500)
Judice | | Change Station
CLOSE
Current Station
Personal Weather Station
Location: Duson, LA
Elevation: 30 ft
Nearby Weather Stations
Active Advisory: Dense Fog Advisory

Elev 30 ft 30.14 °N, 92.14 °W | Updated 4 minutes ago

Fog
Fog
72.3 °F
Feels Like 72.3 °F
N
2.7
Wind Variable Wind from NW

Today
High -- | Low -- °F
--% Chance of Precip.
Yesterday
High -- | Low -- °F
Precip. -- in
6:30 AM 7:42 PM
First Quarter, 56% visible
Pressure 29.76 in
Visibility 0.2 miles
Clouds
Dew Point 72 °F
Humidity 99%
Rainfall 0.00 in
Snow Depth Not available.
UV Not available.
Pollen 7.50 out of 12
Air Quality Not available.
Flu Activity Sporadic
METAR KLFT 261253Z AUTO 00000KT M1/4SM FG VV002 21/21 A2976 RMK AO2 SLP077 T02110211 $

More Conditions Fewer Conditions

Pressure 29.76 in
Visibility 0.2 miles
Clouds
Dew Point 72 °F
Humidity 99%
Rainfall 0.00 in
Snow Depth Not available.
UV Not available.
Pollen 7.50 out of 12
Air Quality Not available.
Flu Activity Sporadic
METAR KLFT 261253Z AUTO 00000KT M1/4SM FG VV002 21/21 A2976 RMK AO2 SLP077 T02110211 $

More Conditions Fewer Conditions

The full scope of the disaster following a powerful 7.8-magnitude earthquake in Nepal may not come into view for days, but global charities are already sending emergency aid. Click to see how you can help.

10-Day Weather Forecast

Almanac

Astronomy

Apr. 26, 2015 Rise Set
Actual Time
Civil Twilight
Nautical Twilight
Astronomical Twilight
Moon
Length of Visible Light
Length of Day
Tomorrow will be .
, % of the Moon is Illuminated

Today's Extremes

State Highs State Lows

Community

WunderPhotos

Upload Photos

1,816,998 photos uploaded!

WunderBlogs® & News

Nearby

Air Quality

  Air Quality AQ Index Pollutant
Not available.

Snow Depth

Station Depth Elevation

Earthquake Activity

City Distance Mag. Time & Date
Minimum magnitude displayed is 2.5.

Coastal Water Temperatures

Place Temperature

Stations

Nearby Weather Stations

Station Location Temp. Windchill Dew Point Humidity Wind Precip. Elev Updated Type
                   
Dense Fog Advisory
Statement as of 5:36 AM CDT on April 26, 2015

... Dense fog advisory in effect until 9 am CDT this morning...

The National Weather Service in Lake Charles has issued a dense
fog advisory... which is in effect until 9 am CDT this morning.

* Visibility... one quarter of a mile or less.

* Impacts... hazardous driving conditions due to limited
visibilities as well as visibilities that vary sharply over
short distances.

Precautionary/preparedness actions...

A dense fog advisory means visibilities will frequently be
reduced to less than one quarter mile. If driving... slow down...
use your headlights... and leave plenty of distance ahead of you.



24